sensor_id;sensor_type;location;lat;lon;timestamp;P1;durP1;ratioP1;P2;durP2;ratioP2
33270;SDS011;53180;51.344;6.152;2023-02-15T00:00:18;6.82;;;6.22;;
33270;SDS011;53180;51.344;6.152;2023-02-15T00:02:47;7.68;;;6.55;;
33270;SDS011;53180;51.344;6.152;2023-02-15T00:05:16;7.88;;;6.50;;
33270;SDS011;53180;51.344;6.152;2023-02-15T00:07:44;8.20;;;6.35;;
33270;SDS011;53180;51.344;6.152;2023-02-15T00:10:12;6.80;;;6.15;;
33270;SDS011;53180;51.344;6.152;2023-02-15T00:12:41;7.50;;;6.25;;
33270;SDS011;53180;51.344;6.152;2023-02-15T00:15:13;7.07;;;6.38;;
33270;SDS011;53180;51.344;6.152;2023-02-15T00:17:41;7.18;;;6.38;;
33270;SDS011;53180;51.344;6.152;2023-02-15T00:20:10;7.85;;;6.78;;
33270;SDS011;53180;51.344;6.152;2023-02-15T00:22:38;9.52;;;7.82;;
33270;SDS011;53180;51.344;6.152;2023-02-15T00:25:07;7.15;;;6.45;;
33270;SDS011;53180;51.344;6.152;2023-02-15T00:27:35;8.48;;;6.97;;
33270;SDS011;53180;51.344;6.152;2023-02-15T00:30:04;11.35;;;6.95;;
33270;SDS011;53180;51.344;6.152;2023-02-15T00:32:35;7.72;;;6.88;;
33270;SDS011;53180;51.344;6.152;2023-02-15T00:35:04;7.63;;;6.53;;
33270;SDS011;53180;51.344;6.152;2023-02-15T00:37:33;7.82;;;6.85;;
33270;SDS011;53180;51.344;6.152;2023-02-15T00:40:02;9.38;;;7.35;;
33270;SDS011;53180;51.344;6.152;2023-02-15T00:42:31;8.85;;;6.57;;
33270;SDS011;53180;51.344;6.152;2023-02-15T00:44:59;6.97;;;6.25;;
33270;SDS011;53180;51.344;6.152;2023-02-15T00:47:28;8.77;;;7.28;;
33270;SDS011;53180;51.344;6.152;2023-02-15T00:49:58;11.82;;;8.07;;
33270;SDS011;53180;51.344;6.152;2023-02-15T00:52:26;7.82;;;7.07;;
33270;SDS011;53180;51.344;6.152;2023-02-15T00:54:54;8.40;;;7.25;;
33270;SDS011;53180;51.344;6.152;2023-02-15T00:57:23;7.55;;;6.70;;
33270;SDS011;53180;51.344;6.152;2023-02-15T00:59:51;11.93;;;7.80;;
33270;SDS011;53180;51.344;6.152;2023-02-15T01:02:19;8.98;;;6.57;;
33270;SDS011;53180;51.344;6.152;2023-02-15T01:04:48;8.95;;;7.80;;
33270;SDS011;53180;51.344;6.152;2023-02-15T01:07:18;8.65;;;6.95;;
33270;SDS011;53180;51.344;6.152;2023-02-15T01:09:46;10.10;;;7.65;;
33270;SDS011;53180;51.344;6.152;2023-02-15T01:12:14;8.30;;;7.03;;
33270;SDS011;53180;51.344;6.152;2023-02-15T01:14:43;7.40;;;6.70;;
33270;SDS011;53180;51.344;6.152;2023-02-15T01:17:11;11.98;;;6.90;;
33270;SDS011;53180;51.344;6.152;2023-02-15T01:19:40;6.82;;;6.22;;
33270;SDS011;53180;51.344;6.152;2023-02-15T01:22:08;10.38;;;7.15;;
33270;SDS011;53180;51.344;6.152;2023-02-15T01:24:38;7.50;;;6.80;;
33270;SDS011;53180;51.344;6.152;2023-02-15T01:27:07;8.80;;;7.75;;
33270;SDS011;53180;51.344;6.152;2023-02-15T01:29:35;9.13;;;7.60;;
33270;SDS011;53180;51.344;6.152;2023-02-15T01:32:03;7.00;;;6.32;;
33270;SDS011;53180;51.344;6.152;2023-02-15T01:34:32;7.55;;;6.80;;
33270;SDS011;53180;51.344;6.152;2023-02-15T01:37:00;8.07;;;6.82;;
33270;SDS011;53180;51.344;6.152;2023-02-15T01:39:29;9.35;;;8.02;;
33270;SDS011;53180;51.344;6.152;2023-02-15T01:41:59;7.60;;;6.90;;
33270;SDS011;53180;51.344;6.152;2023-02-15T01:44:47;7.50;;;6.80;;
33270;SDS011;53180;51.344;6.152;2023-02-15T01:47:19;11.13;;;8.20;;
33270;SDS011;53180;51.344;6.152;2023-02-15T01:49:58;9.45;;;7.32;;
33270;SDS011;53180;51.344;6.152;2023-02-15T01:52:35;11.10;;;7.03;;
33270;SDS011;53180;51.344;6.152;2023-02-15T01:55:07;8.43;;;7.63;;
33270;SDS011;53180;51.344;6.152;2023-02-15T01:57:37;11.57;;;8.05;;
33270;SDS011;53180;51.344;6.152;2023-02-15T02:00:07;8.35;;;7.22;;
33270;SDS011;53180;51.344;6.152;2023-02-15T02:02:37;9.30;;;7.95;;
33270;SDS011;53180;51.344;6.152;2023-02-15T02:05:06;7.45;;;6.75;;
33270;SDS011;53180;51.344;6.152;2023-02-15T02:07:36;7.55;;;6.88;;
33270;SDS011;53180;51.344;6.152;2023-02-15T02:10:09;8.45;;;7.10;;
33270;SDS011;53180;51.344;6.152;2023-02-15T02:12:42;7.70;;;7.00;;
33270;SDS011;53180;51.344;6.152;2023-02-15T02:15:13;8.38;;;7.55;;
33270;SDS011;53180;51.344;6.152;2023-02-15T02:17:47;8.45;;;7.63;;
33270;SDS011;53180;51.344;6.152;2023-02-15T02:20:30;7.93;;;6.82;;
33270;SDS011;53180;51.344;6.152;2023-02-15T02:23:32;13.82;;;7.78;;
33270;SDS011;53180;51.344;6.152;2023-02-15T02:30:02;7.90;;;7.10;;
33270;SDS011;53180;51.344;6.152;2023-02-15T02:36:15;10.30;;;8.57;;
33270;SDS011;53180;51.344;6.152;2023-02-15T02:39:01;10.30;;;7.90;;
33270;SDS011;53180;51.344;6.152;2023-02-15T02:41:43;7.22;;;6.57;;
33270;SDS011;53180;51.344;6.152;2023-02-15T02:44:22;9.07;;;8.10;;
33270;SDS011;53180;51.344;6.152;2023-02-15T02:46:55;7.70;;;6.93;;
33270;SDS011;53180;51.344;6.152;2023-02-15T02:49:30;15.23;;;8.82;;
33270;SDS011;53180;51.344;6.152;2023-02-15T02:52:01;8.05;;;7.05;;
33270;SDS011;53180;51.344;6.152;2023-02-15T02:54:33;9.73;;;8.73;;
33270;SDS011;53180;51.344;6.152;2023-02-15T02:57:03;12.37;;;8.90;;
33270;SDS011;53180;51.344;6.152;2023-02-15T02:59:36;10.38;;;7.70;;
33270;SDS011;53180;51.344;6.152;2023-02-15T03:02:10;11.98;;;8.38;;
33270;SDS011;53180;51.344;6.152;2023-02-15T03:04:47;8.85;;;7.95;;
33270;SDS011;53180;51.344;6.152;2023-02-15T03:07:24;9.00;;;8.10;;
33270;SDS011;53180;51.344;6.152;2023-02-15T03:09:55;10.07;;;8.20;;
33270;SDS011;53180;51.344;6.152;2023-02-15T03:12:27;8.80;;;7.93;;
33270;SDS011;53180;51.344;6.152;2023-02-15T03:15:00;9.50;;;8.50;;
33270;SDS011;53180;51.344;6.152;2023-02-15T03:17:34;13.43;;;8.82;;
33270;SDS011;53180;51.344;6.152;2023-02-15T03:20:08;9.15;;;8.18;;
33270;SDS011;53180;51.344;6.152;2023-02-15T03:22:44;13.48;;;8.80;;
33270;SDS011;53180;51.344;6.152;2023-02-15T03:25:18;8.32;;;7.30;;
33270;SDS011;53180;51.344;6.152;2023-02-15T03:27:52;10.95;;;8.05;;
33270;SDS011;53180;51.344;6.152;2023-02-15T03:30:22;9.32;;;8.43;;
33270;SDS011;53180;51.344;6.152;2023-02-15T03:32:53;9.15;;;8.18;;
33270;SDS011;53180;51.344;6.152;2023-02-15T03:35:23;8.95;;;8.05;;
33270;SDS011;53180;51.344;6.152;2023-02-15T03:37:58;9.80;;;7.97;;
33270;SDS011;53180;51.344;6.152;2023-02-15T03:40:30;8.10;;;7.22;;
33270;SDS011;53180;51.344;6.152;2023-02-15T03:43:21;9.23;;;8.18;;
33270;SDS011;53180;51.344;6.152;2023-02-15T03:45:59;10.57;;;7.75;;
33270;SDS011;53180;51.344;6.152;2023-02-15T03:48:35;8.90;;;8.00;;
33270;SDS011;53180;51.344;6.152;2023-02-15T03:51:10;8.00;;;7.30;;
33270;SDS011;53180;51.344;6.152;2023-02-15T03:54:05;8.68;;;7.72;;
33270;SDS011;53180;51.344;6.152;2023-02-15T03:56:36;8.43;;;7.60;;
33270;SDS011;53180;51.344;6.152;2023-02-15T03:59:08;11.15;;;8.55;;
33270;SDS011;53180;51.344;6.152;2023-02-15T04:01:57;9.80;;;8.25;;
33270;SDS011;53180;51.344;6.152;2023-02-15T04:04:38;9.60;;;8.00;;
33270;SDS011;53180;51.344;6.152;2023-02-15T04:07:13;12.45;;;8.27;;
33270;SDS011;53180;51.344;6.152;2023-02-15T04:09:42;9.70;;;8.55;;
33270;SDS011;53180;51.344;6.152;2023-02-15T04:12:28;9.40;;;8.48;;
33270;SDS011;53180;51.344;6.152;2023-02-15T04:14:56;7.75;;;7.05;;
33270;SDS011;53180;51.344;6.152;2023-02-15T04:17:42;9.35;;;8.38;;
33270;SDS011;53180;51.344;6.152;2023-02-15T04:20:10;14.63;;;8.52;;
33270;SDS011;53180;51.344;6.152;2023-02-15T04:22:58;10.60;;;8.43;;
33270;SDS011;53180;51.344;6.152;2023-02-15T04:25:44;9.23;;;8.30;;
33270;SDS011;53180;51.344;6.152;2023-02-15T04:28:12;10.30;;;8.98;;
33270;SDS011;53180;51.344;6.152;2023-02-15T04:30:40;9.68;;;8.68;;
33270;SDS011;53180;51.344;6.152;2023-02-15T04:33:09;8.93;;;8.05;;
33270;SDS011;53180;51.344;6.152;2023-02-15T04:35:37;10.82;;;8.52;;
33270;SDS011;53180;51.344;6.152;2023-02-15T04:38:07;9.23;;;8.18;;
33270;SDS011;53180;51.344;6.152;2023-02-15T04:40:36;9.32;;;8.27;;
33270;SDS011;53180;51.344;6.152;2023-02-15T04:43:04;9.77;;;8.45;;
33270;SDS011;53180;51.344;6.152;2023-02-15T04:45:33;10.63;;;9.52;;
33270;SDS011;53180;51.344;6.152;2023-02-15T04:48:01;8.43;;;7.63;;
33270;SDS011;53180;51.344;6.152;2023-02-15T04:50:30;8.23;;;7.45;;
33270;SDS011;53180;51.344;6.152;2023-02-15T04:52:58;10.48;;;8.65;;
33270;SDS011;53180;51.344;6.152;2023-02-15T04:55:28;9.80;;;7.88;;
33270;SDS011;53180;51.344;6.152;2023-02-15T04:57:56;10.27;;;8.98;;
33270;SDS011;53180;51.344;6.152;2023-02-15T05:00:24;9.20;;;8.35;;
33270;SDS011;53180;51.344;6.152;2023-02-15T05:02:53;15.07;;;9.10;;
33270;SDS011;53180;51.344;6.152;2023-02-15T05:05:22;9.48;;;8.40;;
33270;SDS011;53180;51.344;6.152;2023-02-15T05:07:51;10.55;;;8.63;;
33270;SDS011;53180;51.344;6.152;2023-02-15T05:10:20;10.30;;;9.20;;
33270;SDS011;53180;51.344;6.152;2023-02-15T05:12:49;11.30;;;9.13;;
33270;SDS011;53180;51.344;6.152;2023-02-15T05:15:18;9.25;;;8.35;;
33270;SDS011;53180;51.344;6.152;2023-02-15T05:17:46;9.73;;;8.40;;
33270;SDS011;53180;51.344;6.152;2023-02-15T05:20:14;10.32;;;8.60;;
33270;SDS011;53180;51.344;6.152;2023-02-15T05:22:44;9.43;;;8.52;;
33270;SDS011;53180;51.344;6.152;2023-02-15T05:25:13;20.08;;;13.75;;
33270;SDS011;53180;51.344;6.152;2023-02-15T05:28:00;10.35;;;9.27;;
33270;SDS011;53180;51.344;6.152;2023-02-15T05:30:45;11.25;;;8.63;;
33270;SDS011;53180;51.344;6.152;2023-02-15T05:33:14;8.13;;;7.40;;
33270;SDS011;53180;51.344;6.152;2023-02-15T05:35:43;10.00;;;9.00;;
33270;SDS011;53180;51.344;6.152;2023-02-15T05:38:11;8.38;;;7.68;;
33270;SDS011;53180;51.344;6.152;2023-02-15T05:40:40;9.10;;;8.20;;
33270;SDS011;53180;51.344;6.152;2023-02-15T05:43:09;13.73;;;8.88;;
33270;SDS011;53180;51.344;6.152;2023-02-15T05:45:38;9.20;;;8.27;;
33270;SDS011;53180;51.344;6.152;2023-02-15T05:48:06;9.50;;;8.57;;
33270;SDS011;53180;51.344;6.152;2023-02-15T05:50:35;13.20;;;9.75;;
33270;SDS011;53180;51.344;6.152;2023-02-15T05:53:03;10.00;;;8.95;;
33270;SDS011;53180;51.344;6.152;2023-02-15T05:55:36;9.40;;;8.50;;
33270;SDS011;53180;51.344;6.152;2023-02-15T05:58:05;18.75;;;9.45;;
33270;SDS011;53180;51.344;6.152;2023-02-15T06:00:35;11.45;;;9.07;;
33270;SDS011;53180;51.344;6.152;2023-02-15T06:03:04;11.15;;;9.38;;
33270;SDS011;53180;51.344;6.152;2023-02-15T06:05:32;10.07;;;9.18;;
33270;SDS011;53180;51.344;6.152;2023-02-15T06:08:00;9.13;;;8.23;;
33270;SDS011;53180;51.344;6.152;2023-02-15T06:10:31;10.35;;;9.30;;
33270;SDS011;53180;51.344;6.152;2023-02-15T06:12:59;9.60;;;8.68;;
33270;SDS011;53180;51.344;6.152;2023-02-15T06:15:28;9.80;;;8.82;;
33270;SDS011;53180;51.344;6.152;2023-02-15T06:17:57;9.73;;;8.70;;
33270;SDS011;53180;51.344;6.152;2023-02-15T06:20:26;9.20;;;8.30;;
33270;SDS011;53180;51.344;6.152;2023-02-15T06:22:54;8.55;;;7.75;;
33270;SDS011;53180;51.344;6.152;2023-02-15T06:25:23;9.38;;;8.40;;
33270;SDS011;53180;51.344;6.152;2023-02-15T06:27:51;9.75;;;8.75;;
33270;SDS011;53180;51.344;6.152;2023-02-15T06:30:20;9.30;;;8.45;;
33270;SDS011;53180;51.344;6.152;2023-02-15T06:32:49;11.32;;;10.18;;
33270;SDS011;53180;51.344;6.152;2023-02-15T06:35:18;14.35;;;9.10;;
33270;SDS011;53180;51.344;6.152;2023-02-15T06:37:48;10.13;;;9.10;;
33270;SDS011;53180;51.344;6.152;2023-02-15T06:40:17;10.60;;;9.18;;
33270;SDS011;53180;51.344;6.152;2023-02-15T06:42:45;9.02;;;8.20;;
33270;SDS011;53180;51.344;6.152;2023-02-15T06:45:14;13.23;;;8.45;;
33270;SDS011;53180;51.344;6.152;2023-02-15T06:47:42;11.55;;;9.10;;
33270;SDS011;53180;51.344;6.152;2023-02-15T06:50:11;9.38;;;8.50;;
33270;SDS011;53180;51.344;6.152;2023-02-15T06:52:41;9.05;;;8.15;;
33270;SDS011;53180;51.344;6.152;2023-02-15T06:55:09;10.45;;;9.45;;
33270;SDS011;53180;51.344;6.152;2023-02-15T06:57:40;11.32;;;9.82;;
33270;SDS011;53180;51.344;6.152;2023-02-15T07:00:09;9.93;;;8.82;;
33270;SDS011;53180;51.344;6.152;2023-02-15T07:02:39;9.77;;;8.88;;
33270;SDS011;53180;51.344;6.152;2023-02-15T07:05:07;9.15;;;8.20;;
33270;SDS011;53180;51.344;6.152;2023-02-15T07:07:36;9.48;;;8.13;;
33270;SDS011;53180;51.344;6.152;2023-02-15T07:10:06;10.07;;;7.57;;
33270;SDS011;53180;51.344;6.152;2023-02-15T07:12:35;11.02;;;9.60;;
33270;SDS011;53180;51.344;6.152;2023-02-15T07:15:09;10.20;;;9.00;;
33270;SDS011;53180;51.344;6.152;2023-02-15T07:17:39;9.90;;;8.90;;
33270;SDS011;53180;51.344;6.152;2023-02-15T07:20:09;10.57;;;9.27;;
33270;SDS011;53180;51.344;6.152;2023-02-15T07:22:40;13.00;;;8.63;;
33270;SDS011;53180;51.344;6.152;2023-02-15T07:25:10;9.90;;;8.93;;
33270;SDS011;53180;51.344;6.152;2023-02-15T07:27:39;14.68;;;9.30;;
33270;SDS011;53180;51.344;6.152;2023-02-15T07:30:10;11.00;;;9.13;;
33270;SDS011;53180;51.344;6.152;2023-02-15T07:32:41;8.80;;;8.02;;
33270;SDS011;53180;51.344;6.152;2023-02-15T07:35:23;11.52;;;8.98;;
33270;SDS011;53180;51.344;6.152;2023-02-15T07:37:52;12.98;;;9.73;;
33270;SDS011;53180;51.344;6.152;2023-02-15T07:40:22;9.57;;;8.55;;
33270;SDS011;53180;51.344;6.152;2023-02-15T07:45:21;9.60;;;8.63;;
33270;SDS011;53180;51.344;6.152;2023-02-15T07:47:50;13.02;;;9.23;;
33270;SDS011;53180;51.344;6.152;2023-02-15T07:50:18;13.63;;;9.25;;
33270;SDS011;53180;51.344;6.152;2023-02-15T07:52:47;10.23;;;9.23;;
33270;SDS011;53180;51.344;6.152;2023-02-15T07:55:15;11.80;;;9.63;;
33270;SDS011;53180;51.344;6.152;2023-02-15T07:57:46;11.05;;;9.32;;
33270;SDS011;53180;51.344;6.152;2023-02-15T08:00:16;11.48;;;9.82;;
33270;SDS011;53180;51.344;6.152;2023-02-15T08:02:50;10.02;;;9.02;;
33270;SDS011;53180;51.344;6.152;2023-02-15T08:05:34;10.57;;;9.57;;
33270;SDS011;53180;51.344;6.152;2023-02-15T08:08:03;11.93;;;8.80;;
33270;SDS011;53180;51.344;6.152;2023-02-15T08:10:31;13.50;;;9.77;;
33270;SDS011;53180;51.344;6.152;2023-02-15T08:13:19;9.15;;;8.25;;
33270;SDS011;53180;51.344;6.152;2023-02-15T08:15:48;11.27;;;8.73;;
33270;SDS011;53180;51.344;6.152;2023-02-15T08:18:17;9.27;;;8.05;;
33270;SDS011;53180;51.344;6.152;2023-02-15T08:20:48;11.93;;;8.80;;
33270;SDS011;53180;51.344;6.152;2023-02-15T08:23:17;9.27;;;7.85;;
33270;SDS011;53180;51.344;6.152;2023-02-15T08:25:45;14.10;;;8.63;;
33270;SDS011;53180;51.344;6.152;2023-02-15T08:28:14;16.13;;;9.57;;
33270;SDS011;53180;51.344;6.152;2023-02-15T08:30:43;8.77;;;7.90;;
33270;SDS011;53180;51.344;6.152;2023-02-15T08:33:12;11.43;;;8.85;;
33270;SDS011;53180;51.344;6.152;2023-02-15T08:35:40;9.65;;;8.55;;
33270;SDS011;53180;51.344;6.152;2023-02-15T08:38:09;12.15;;;8.35;;
33270;SDS011;53180;51.344;6.152;2023-02-15T08:40:37;10.57;;;8.05;;
33270;SDS011;53180;51.344;6.152;2023-02-15T08:43:05;11.40;;;8.57;;
33270;SDS011;53180;51.344;6.152;2023-02-15T08:45:33;10.65;;;8.57;;
33270;SDS011;53180;51.344;6.152;2023-02-15T08:48:04;11.90;;;8.57;;
33270;SDS011;53180;51.344;6.152;2023-02-15T08:50:33;11.45;;;8.60;;
33270;SDS011;53180;51.344;6.152;2023-02-15T08:53:01;8.13;;;7.30;;
33270;SDS011;53180;51.344;6.152;2023-02-15T08:55:30;17.52;;;9.25;;
33270;SDS011;53180;51.344;6.152;2023-02-15T08:57:58;11.27;;;8.02;;
33270;SDS011;53180;51.344;6.152;2023-02-15T09:00:27;12.38;;;8.52;;
33270;SDS011;53180;51.344;6.152;2023-02-15T09:02:55;11.30;;;8.45;;
33270;SDS011;53180;51.344;6.152;2023-02-15T09:05:25;10.93;;;7.20;;
33270;SDS011;53180;51.344;6.152;2023-02-15T09:07:54;10.50;;;7.82;;
33270;SDS011;53180;51.344;6.152;2023-02-15T09:10:22;15.75;;;9.23;;
33270;SDS011;53180;51.344;6.152;2023-02-15T09:12:51;12.25;;;8.18;;
33270;SDS011;53180;51.344;6.152;2023-02-15T09:15:19;14.55;;;9.38;;
33270;SDS011;53180;51.344;6.152;2023-02-15T09:17:48;10.98;;;8.10;;
33270;SDS011;53180;51.344;6.152;2023-02-15T09:20:16;12.77;;;8.13;;
33270;SDS011;53180;51.344;6.152;2023-02-15T09:22:46;14.15;;;8.48;;
33270;SDS011;53180;51.344;6.152;2023-02-15T09:25:15;13.27;;;7.47;;
33270;SDS011;53180;51.344;6.152;2023-02-15T09:27:43;10.73;;;6.80;;
33270;SDS011;53180;51.344;6.152;2023-02-15T09:30:12;11.13;;;7.75;;
33270;SDS011;53180;51.344;6.152;2023-02-15T09:32:41;12.27;;;7.72;;
33270;SDS011;53180;51.344;6.152;2023-02-15T09:35:09;11.23;;;7.97;;
33270;SDS011;53180;51.344;6.152;2023-02-15T09:37:38;14.02;;;8.93;;
33270;SDS011;53180;51.344;6.152;2023-02-15T09:40:08;11.93;;;7.13;;
33270;SDS011;53180;51.344;6.152;2023-02-15T09:42:51;16.58;;;7.75;;
33270;SDS011;53180;51.344;6.152;2023-02-15T09:45:49;16.00;;;8.10;;
33270;SDS011;53180;51.344;6.152;2023-02-15T09:48:43;12.05;;;7.22;;
33270;SDS011;53180;51.344;6.152;2023-02-15T09:51:22;16.05;;;8.27;;
33270;SDS011;53180;51.344;6.152;2023-02-15T09:54:06;15.15;;;7.55;;
33270;SDS011;53180;51.344;6.152;2023-02-15T09:57:04;13.38;;;7.60;;
33270;SDS011;53180;51.344;6.152;2023-02-15T09:59:40;11.85;;;6.60;;
33270;SDS011;53180;51.344;6.152;2023-02-15T10:02:23;13.48;;;7.43;;
33270;SDS011;53180;51.344;6.152;2023-02-15T10:05:09;12.73;;;7.60;;
33270;SDS011;53180;51.344;6.152;2023-02-15T10:07:54;17.05;;;7.93;;
33270;SDS011;53180;51.344;6.152;2023-02-15T10:10:57;22.60;;;8.23;;
33270;SDS011;53180;51.344;6.152;2023-02-15T10:14:01;12.87;;;7.57;;
33270;SDS011;53180;51.344;6.152;2023-02-15T10:16:45;16.80;;;7.30;;
33270;SDS011;53180;51.344;6.152;2023-02-15T10:19:26;13.57;;;7.22;;
33270;SDS011;53180;51.344;6.152;2023-02-15T10:22:10;12.27;;;7.25;;
33270;SDS011;53180;51.344;6.152;2023-02-15T10:24:56;10.38;;;7.18;;
33270;SDS011;53180;51.344;6.152;2023-02-15T10:27:44;14.35;;;7.97;;
33270;SDS011;53180;51.344;6.152;2023-02-15T10:30:16;19.50;;;8.10;;
33270;SDS011;53180;51.344;6.152;2023-02-15T10:32:54;13.10;;;8.45;;
33270;SDS011;53180;51.344;6.152;2023-02-15T10:35:30;11.40;;;7.00;;
33270;SDS011;53180;51.344;6.152;2023-02-15T10:38:14;13.05;;;6.53;;
33270;SDS011;53180;51.344;6.152;2023-02-15T10:40:56;16.35;;;8.00;;
33270;SDS011;53180;51.344;6.152;2023-02-15T10:43:41;10.85;;;6.90;;
33270;SDS011;53180;51.344;6.152;2023-02-15T10:46:37;15.38;;;7.45;;
33270;SDS011;53180;51.344;6.152;2023-02-15T10:49:23;13.45;;;6.72;;
33270;SDS011;53180;51.344;6.152;2023-02-15T10:52:08;13.70;;;7.78;;
33270;SDS011;53180;51.344;6.152;2023-02-15T10:54:52;11.57;;;6.78;;
33270;SDS011;53180;51.344;6.152;2023-02-15T10:57:33;11.80;;;7.15;;
33270;SDS011;53180;51.344;6.152;2023-02-15T11:00:09;18.58;;;7.78;;
33270;SDS011;53180;51.344;6.152;2023-02-15T11:02:52;13.80;;;7.10;;
33270;SDS011;53180;51.344;6.152;2023-02-15T11:05:56;15.07;;;7.75;;
33270;SDS011;53180;51.344;6.152;2023-02-15T11:08:32;18.05;;;8.48;;
33270;SDS011;53180;51.344;6.152;2023-02-15T11:11:06;14.15;;;7.40;;
33270;SDS011;53180;51.344;6.152;2023-02-15T11:13:38;14.70;;;7.55;;
33270;SDS011;53180;51.344;6.152;2023-02-15T11:16:13;11.63;;;6.93;;
33270;SDS011;53180;51.344;6.152;2023-02-15T11:18:48;16.05;;;7.28;;
33270;SDS011;53180;51.344;6.152;2023-02-15T11:21:22;18.98;;;7.35;;
33270;SDS011;53180;51.344;6.152;2023-02-15T11:23:54;15.38;;;6.97;;
33270;SDS011;53180;51.344;6.152;2023-02-15T11:26:24;12.25;;;6.95;;
33270;SDS011;53180;51.344;6.152;2023-02-15T11:28:59;14.05;;;7.35;;
33270;SDS011;53180;51.344;6.152;2023-02-15T11:31:38;18.60;;;6.80;;
33270;SDS011;53180;51.344;6.152;2023-02-15T11:34:15;16.17;;;7.18;;
33270;SDS011;53180;51.344;6.152;2023-02-15T11:36:49;12.15;;;6.25;;
33270;SDS011;53180;51.344;6.152;2023-02-15T11:39:20;11.90;;;6.70;;
33270;SDS011;53180;51.344;6.152;2023-02-15T11:41:52;14.77;;;6.95;;
33270;SDS011;53180;51.344;6.152;2023-02-15T11:44:26;15.32;;;8.02;;
33270;SDS011;53180;51.344;6.152;2023-02-15T11:47:00;11.20;;;6.20;;
33270;SDS011;53180;51.344;6.152;2023-02-15T11:49:30;12.50;;;6.63;;
33270;SDS011;53180;51.344;6.152;2023-02-15T11:52:02;16.10;;;7.22;;
33270;SDS011;53180;51.344;6.152;2023-02-15T11:54:34;12.77;;;6.90;;
33270;SDS011;53180;51.344;6.152;2023-02-15T11:57:10;11.93;;;6.38;;
33270;SDS011;53180;51.344;6.152;2023-02-15T11:59:46;18.38;;;7.45;;
33270;SDS011;53180;51.344;6.152;2023-02-15T12:02:19;10.65;;;6.28;;
33270;SDS011;53180;51.344;6.152;2023-02-15T12:04:51;23.13;;;8.60;;
33270;SDS011;53180;51.344;6.152;2023-02-15T12:07:23;12.45;;;6.65;;
33270;SDS011;53180;51.344;6.152;2023-02-15T12:09:56;15.60;;;7.45;;
33270;SDS011;53180;51.344;6.152;2023-02-15T12:12:34;12.45;;;6.57;;
33270;SDS011;53180;51.344;6.152;2023-02-15T12:15:04;15.27;;;6.60;;
33270;SDS011;53180;51.344;6.152;2023-02-15T12:17:35;15.38;;;6.60;;
33270;SDS011;53180;51.344;6.152;2023-02-15T12:20:21;16.10;;;7.35;;
33270;SDS011;53180;51.344;6.152;2023-02-15T12:22:59;17.58;;;6.85;;
33270;SDS011;53180;51.344;6.152;2023-02-15T12:25:33;11.32;;;6.15;;
33270;SDS011;53180;51.344;6.152;2023-02-15T12:28:05;13.90;;;6.43;;
33270;SDS011;53180;51.344;6.152;2023-02-15T12:30:51;11.60;;;6.68;;
33270;SDS011;53180;51.344;6.152;2023-02-15T12:33:23;13.52;;;7.00;;
33270;SDS011;53180;51.344;6.152;2023-02-15T12:35:59;11.05;;;6.25;;
33270;SDS011;53180;51.344;6.152;2023-02-15T12:38:31;9.90;;;5.30;;
33270;SDS011;53180;51.344;6.152;2023-02-15T12:41:01;11.70;;;5.97;;
33270;SDS011;53180;51.344;6.152;2023-02-15T12:46:12;9.88;;;5.78;;
33270;SDS011;53180;51.344;6.152;2023-02-15T12:49:04;15.48;;;7.40;;
33270;SDS011;53180;51.344;6.152;2023-02-15T12:54:27;17.45;;;6.80;;
33270;SDS011;53180;51.344;6.152;2023-02-15T12:57:12;10.90;;;5.90;;
33270;SDS011;53180;51.344;6.152;2023-02-15T12:59:54;14.55;;;6.40;;
33270;SDS011;53180;51.344;6.152;2023-02-15T13:02:25;10.80;;;5.63;;
33270;SDS011;53180;51.344;6.152;2023-02-15T13:05:03;12.18;;;5.80;;
33270;SDS011;53180;51.344;6.152;2023-02-15T13:07:47;9.52;;;5.47;;
33270;SDS011;53180;51.344;6.152;2023-02-15T13:10:28;12.75;;;5.95;;
33270;SDS011;53180;51.344;6.152;2023-02-15T13:12:58;15.27;;;5.55;;
33270;SDS011;53180;51.344;6.152;2023-02-15T13:15:31;14.10;;;6.22;;
33270;SDS011;53180;51.344;6.152;2023-02-15T13:18:04;12.27;;;6.47;;
33270;SDS011;53180;51.344;6.152;2023-02-15T13:20:39;13.25;;;6.05;;
33270;SDS011;53180;51.344;6.152;2023-02-15T13:23:17;14.77;;;5.95;;
33270;SDS011;53180;51.344;6.152;2023-02-15T13:25:55;10.10;;;5.30;;
33270;SDS011;53180;51.344;6.152;2023-02-15T13:28:27;15.65;;;6.45;;
33270;SDS011;53180;51.344;6.152;2023-02-15T13:31:11;17.52;;;6.70;;
33270;SDS011;53180;51.344;6.152;2023-02-15T13:33:42;11.57;;;5.82;;
33270;SDS011;53180;51.344;6.152;2023-02-15T13:36:15;9.75;;;5.70;;
33270;SDS011;53180;51.344;6.152;2023-02-15T13:39:05;11.07;;;5.82;;
33270;SDS011;53180;51.344;6.152;2023-02-15T13:41:51;14.15;;;6.78;;
33270;SDS011;53180;51.344;6.152;2023-02-15T13:44:44;12.68;;;6.45;;
33270;SDS011;53180;51.344;6.152;2023-02-15T13:47:26;11.98;;;6.00;;
33270;SDS011;53180;51.344;6.152;2023-02-15T13:50:05;13.00;;;6.18;;
33270;SDS011;53180;51.344;6.152;2023-02-15T13:52:58;14.52;;;6.68;;
33270;SDS011;53180;51.344;6.152;2023-02-15T13:55:43;13.77;;;6.10;;
33270;SDS011;53180;51.344;6.152;2023-02-15T14:01:37;13.18;;;6.55;;
33270;SDS011;53180;51.344;6.152;2023-02-15T14:04:22;11.60;;;6.57;;
33270;SDS011;53180;51.344;6.152;2023-02-15T14:07:16;11.80;;;5.90;;
33270;SDS011;53180;51.344;6.152;2023-02-15T14:10:02;12.70;;;6.03;;
33270;SDS011;53180;51.344;6.152;2023-02-15T14:12:53;9.95;;;4.93;;
33270;SDS011;53180;51.344;6.152;2023-02-15T14:15:40;11.80;;;5.25;;
33270;SDS011;53180;51.344;6.152;2023-02-15T14:18:18;14.10;;;6.30;;
33270;SDS011;53180;51.344;6.152;2023-02-15T14:20:56;13.93;;;5.55;;
33270;SDS011;53180;51.344;6.152;2023-02-15T14:26:12;11.15;;;5.85;;
33270;SDS011;53180;51.344;6.152;2023-02-15T14:28:49;10.10;;;5.40;;
33270;SDS011;53180;51.344;6.152;2023-02-15T14:31:30;11.57;;;6.10;;
33270;SDS011;53180;51.344;6.152;2023-02-15T14:34:04;14.77;;;6.65;;
33270;SDS011;53180;51.344;6.152;2023-02-15T14:39:16;12.07;;;5.43;;
33270;SDS011;53180;51.344;6.152;2023-02-15T14:42:18;12.98;;;5.93;;
33270;SDS011;53180;51.344;6.152;2023-02-15T14:44:55;9.20;;;5.80;;
33270;SDS011;53180;51.344;6.152;2023-02-15T14:47:31;12.57;;;6.32;;
33270;SDS011;53180;51.344;6.152;2023-02-15T14:56:22;13.50;;;6.03;;
33270;SDS011;53180;51.344;6.152;2023-02-15T14:58:56;11.35;;;6.55;;
33270;SDS011;53180;51.344;6.152;2023-02-15T15:01:36;12.57;;;6.28;;
33270;SDS011;53180;51.344;6.152;2023-02-15T15:04:06;8.20;;;4.15;;
33270;SDS011;53180;51.344;6.152;2023-02-15T15:06:38;12.52;;;5.65;;
33270;SDS011;53180;51.344;6.152;2023-02-15T15:09:10;10.60;;;5.50;;
33270;SDS011;53180;51.344;6.152;2023-02-15T15:11:46;14.00;;;6.00;;
33270;SDS011;53180;51.344;6.152;2023-02-15T15:20:43;12.95;;;6.10;;
33270;SDS011;53180;51.344;6.152;2023-02-15T15:28:56;10.18;;;5.55;;
33270;SDS011;53180;51.344;6.152;2023-02-15T15:31:37;11.65;;;6.07;;
33270;SDS011;53180;51.344;6.152;2023-02-15T15:37:36;11.43;;;6.28;;
33270;SDS011;53180;51.344;6.152;2023-02-15T15:40:49;12.60;;;6.43;;
33270;SDS011;53180;51.344;6.152;2023-02-15T15:47:02;19.80;;;6.82;;
33270;SDS011;53180;51.344;6.152;2023-02-15T15:49:44;10.55;;;5.80;;
33270;SDS011;53180;51.344;6.152;2023-02-15T15:52:16;10.32;;;5.95;;
33270;SDS011;53180;51.344;6.152;2023-02-15T15:54:48;9.98;;;5.82;;
33270;SDS011;53180;51.344;6.152;2023-02-15T15:57:22;11.25;;;6.38;;
33270;SDS011;53180;51.344;6.152;2023-02-15T15:59:56;12.35;;;6.78;;
33270;SDS011;53180;51.344;6.152;2023-02-15T16:02:26;12.35;;;6.18;;
33270;SDS011;53180;51.344;6.152;2023-02-15T16:05:04;11.70;;;6.28;;
33270;SDS011;53180;51.344;6.152;2023-02-15T16:07:36;18.27;;;7.43;;